sensor_id;sensor_type;location;lat;lon;timestamp;pressure;altitude;pressure_sealevel;temperature;humidity
12722;BME280;6425;50.316;8.114;2023-03-15T00:00:00;986;;;0.7;86.9
12722;BME280;6425;50.316;8.114;2023-03-15T00:03:00;986;;;0.8;87.1
12722;BME280;6425;50.316;8.114;2023-03-15T00:06:00;986;;;1.1;86.4
12722;BME280;6425;50.316;8.114;2023-03-15T00:09:00;986;;;1;85.4
12722;BME280;6425;50.316;8.114;2023-03-15T00:12:00;986;;;0.7;86.2
12722;BME280;6425;50.316;8.114;2023-03-15T00:15:00;986;;;0.8;86.7
12722;BME280;6425;50.316;8.114;2023-03-15T00:18:00;986;;;0.5;86.7
12722;BME280;6425;50.316;8.114;2023-03-15T00:21:00;986;;;0.1;87.8
12722;BME280;6425;50.316;8.114;2023-03-15T00:24:00;986;;;0.1;88.7
12722;BME280;6425;50.316;8.114;2023-03-15T00:27:00;987;;;0.1;88.7
12722;BME280;6425;50.316;8.114;2023-03-15T00:30:00;987;;;0.1;88.9
12722;BME280;6425;50.316;8.114;2023-03-15T00:33:00;987;;;-0.1;89.2
12722;BME280;6425;50.316;8.114;2023-03-15T00:36:01;987;;;-0.3;90
12722;BME280;6425;50.316;8.114;2023-03-15T00:39:00;987;;;-0.3;90.4
12722;BME280;6425;50.316;8.114;2023-03-15T00:42:00;987;;;-0.2;90.5
12722;BME280;6425;50.316;8.114;2023-03-15T00:45:00;987;;;-0.2;90.4
12722;BME280;6425;50.316;8.114;2023-03-15T00:48:00;987;;;-0.1;90.6
12722;BME280;6425;50.316;8.114;2023-03-15T00:51:00;987;;;0;90.7
12722;BME280;6425;50.316;8.114;2023-03-15T00:54:00;987;;;0.1;90.4
12722;BME280;6425;50.316;8.114;2023-03-15T00:57:00;987;;;0.3;89.9
12722;BME280;6425;50.316;8.114;2023-03-15T01:00:00;987;;;0.2;89.7
12722;BME280;6425;50.316;8.114;2023-03-15T01:03:00;987;;;0.1;89.7
12722;BME280;6425;50.316;8.114;2023-03-15T01:06:03;987;;;0;90.1
12722;BME280;6425;50.316;8.114;2023-03-15T01:09:00;987;;;-0.1;90.6
12722;BME280;6425;50.316;8.114;2023-03-15T01:12:00;987;;;-0.2;91.1
12722;BME280;6425;50.316;8.114;2023-03-15T01:15:00;987;;;-0.2;91.3
12722;BME280;6425;50.316;8.114;2023-03-15T01:18:00;987;;;0;90.7
12722;BME280;6425;50.316;8.114;2023-03-15T01:21:00;987;;;0.2;90.3
12722;BME280;6425;50.316;8.114;2023-03-15T01:24:00;987;;;0.1;89.7
12722;BME280;6425;50.316;8.114;2023-03-15T01:27:00;987;;;0.2;89.3
12722;BME280;6425;50.316;8.114;2023-03-15T01:30:00;987;;;0;89.2
12722;BME280;6425;50.316;8.114;2023-03-15T01:33:00;987;;;0.2;88.9
12722;BME280;6425;50.316;8.114;2023-03-15T01:36:00;987;;;0.7;87.8
12722;BME280;6425;50.316;8.114;2023-03-15T01:39:00;987;;;1;85.8
12722;BME280;6425;50.316;8.114;2023-03-15T01:42:00;987;;;1.4;83.6
12722;BME280;6425;50.316;8.114;2023-03-15T01:45:00;987;;;1.1;82.9
12722;BME280;6425;50.316;8.114;2023-03-15T01:48:00;987;;;0.2;84.6
12722;BME280;6425;50.316;8.114;2023-03-15T01:51:00;987;;;-0.2;87.4
12722;BME280;6425;50.316;8.114;2023-03-15T01:54:02;987;;;-0.2;88.4
12722;BME280;6425;50.316;8.114;2023-03-15T01:57:01;987;;;-0.2;89.2
12722;BME280;6425;50.316;8.114;2023-03-15T02:00:00;987;;;0;89.1
12722;BME280;6425;50.316;8.114;2023-03-15T02:03:01;987;;;-0.1;89.3
12722;BME280;6425;50.316;8.114;2023-03-15T02:06:01;987;;;0;89.4
12722;BME280;6425;50.316;8.114;2023-03-15T02:09:00;987;;;-0.1;89.6
12722;BME280;6425;50.316;8.114;2023-03-15T02:12:00;987;;;-0.1;89.5
12722;BME280;6425;50.316;8.114;2023-03-15T02:15:00;987;;;0;89.7
12722;BME280;6425;50.316;8.114;2023-03-15T02:18:00;987;;;0;89.5
12722;BME280;6425;50.316;8.114;2023-03-15T02:21:02;987;;;-0.1;89.4
12722;BME280;6425;50.316;8.114;2023-03-15T02:24:02;987;;;0.1;89
12722;BME280;6425;50.316;8.114;2023-03-15T02:27:00;987;;;0;89
12722;BME280;6425;50.316;8.114;2023-03-15T02:30:00;987;;;0.1;88.9
12722;BME280;6425;50.316;8.114;2023-03-15T02:33:00;987;;;0.3;88.3
12722;BME280;6425;50.316;8.114;2023-03-15T02:36:05;987;;;0.4;87.6
12722;BME280;6425;50.316;8.114;2023-03-15T02:39:00;987;;;0.4;86.7
12722;BME280;6425;50.316;8.114;2023-03-15T02:42:00;987;;;0.4;86.8
12722;BME280;6425;50.316;8.114;2023-03-15T02:45:00;987;;;0.6;86.9
12722;BME280;6425;50.316;8.114;2023-03-15T02:48:00;987;;;0.6;86.7
12722;BME280;6425;50.316;8.114;2023-03-15T02:51:00;987;;;0.7;86
12722;BME280;6425;50.316;8.114;2023-03-15T02:54:00;987;;;0.6;85.6
12722;BME280;6425;50.316;8.114;2023-03-15T02:57:00;987;;;0.9;85.1
12722;BME280;6425;50.316;8.114;2023-03-15T03:00:00;987;;;0.9;84.7
12722;BME280;6425;50.316;8.114;2023-03-15T03:03:00;987;;;0.9;84.4
12722;BME280;6425;50.316;8.114;2023-03-15T03:06:00;987;;;0.9;84.5
12722;BME280;6425;50.316;8.114;2023-03-15T03:09:00;988;;;0.9;84.9
12722;BME280;6425;50.316;8.114;2023-03-15T03:12:00;987;;;1.2;84.2
12722;BME280;6425;50.316;8.114;2023-03-15T03:15:00;987;;;1.4;82.9
12722;BME280;6425;50.316;8.114;2023-03-15T03:18:00;987;;;1.6;82
12722;BME280;6425;50.316;8.114;2023-03-15T03:21:00;987;;;1.9;80.9
12722;BME280;6425;50.316;8.114;2023-03-15T03:24:00;987;;;2;79.8
12722;BME280;6425;50.316;8.114;2023-03-15T03:27:00;987;;;1.8;79.8
12722;BME280;6425;50.316;8.114;2023-03-15T03:30:00;987;;;1.5;80.6
12722;BME280;6425;50.316;8.114;2023-03-15T03:33:00;987;;;1.3;81.8
12722;BME280;6425;50.316;8.114;2023-03-15T03:36:01;987;;;1.1;83
12722;BME280;6425;50.316;8.114;2023-03-15T03:39:00;987;;;1.1;83.5
12722;BME280;6425;50.316;8.114;2023-03-15T03:42:00;988;;;1;83.8
12722;BME280;6425;50.316;8.114;2023-03-15T03:45:00;988;;;0.9;84.3
12722;BME280;6425;50.316;8.114;2023-03-15T03:48:00;988;;;0.9;84.4
12722;BME280;6425;50.316;8.114;2023-03-15T03:51:00;988;;;0.9;84.5
12722;BME280;6425;50.316;8.114;2023-03-15T03:54:00;988;;;0.8;85
12722;BME280;6425;50.316;8.114;2023-03-15T03:57:00;988;;;0.7;86.1
12722;BME280;6425;50.316;8.114;2023-03-15T04:00:00;988;;;0.8;86
12722;BME280;6425;50.316;8.114;2023-03-15T04:03:00;988;;;0.9;85.8
12722;BME280;6425;50.316;8.114;2023-03-15T04:06:00;988;;;1.2;84.9
12722;BME280;6425;50.316;8.114;2023-03-15T04:09:00;988;;;1.4;83.9
12722;BME280;6425;50.316;8.114;2023-03-15T04:12:00;988;;;1.3;83.1
12722;BME280;6425;50.316;8.114;2023-03-15T04:15:00;988;;;1.3;83.3
12722;BME280;6425;50.316;8.114;2023-03-15T04:18:00;988;;;1.4;83
12722;BME280;6425;50.316;8.114;2023-03-15T04:21:00;988;;;1.7;82.6
12722;BME280;6425;50.316;8.114;2023-03-15T04:24:00;988;;;1.5;82.1
12722;BME280;6425;50.316;8.114;2023-03-15T04:27:00;988;;;1.6;81.9
12722;BME280;6425;50.316;8.114;2023-03-15T04:30:00;988;;;1.6;82.1
12722;BME280;6425;50.316;8.114;2023-03-15T04:33:00;988;;;1.5;83
12722;BME280;6425;50.316;8.114;2023-03-15T04:36:00;988;;;0.7;85.2
12722;BME280;6425;50.316;8.114;2023-03-15T04:39:00;988;;;0.3;88.4
12722;BME280;6425;50.316;8.114;2023-03-15T04:42:00;988;;;0.4;90.1
12722;BME280;6425;50.316;8.114;2023-03-15T04:45:00;988;;;0.6;90.3
12722;BME280;6425;50.316;8.114;2023-03-15T04:48:00;988;;;1;89.9
12722;BME280;6425;50.316;8.114;2023-03-15T04:51:00;988;;;0.9;89.1
12722;BME280;6425;50.316;8.114;2023-03-15T04:54:00;988;;;0.6;89.8
12722;BME280;6425;50.316;8.114;2023-03-15T04:57:00;988;;;0.5;90.9
12722;BME280;6425;50.316;8.114;2023-03-15T05:00:00;988;;;0.5;92.8
12722;BME280;6425;50.316;8.114;2023-03-15T05:03:00;988;;;0.2;94.8
12722;BME280;6425;50.316;8.114;2023-03-15T05:06:00;988;;;0;96.9
12722;BME280;6425;50.316;8.114;2023-03-15T05:09:00;988;;;0;98.7
12722;BME280;6425;50.316;8.114;2023-03-15T05:12:00;988;;;-0.2;100
12722;BME280;6425;50.316;8.114;2023-03-15T05:15:00;988;;;-0.3;100
12722;BME280;6425;50.316;8.114;2023-03-15T05:18:00;988;;;-0.3;100
12722;BME280;6425;50.316;8.114;2023-03-15T05:21:00;988;;;-0.2;100
12722;BME280;6425;50.316;8.114;2023-03-15T05:24:00;988;;;-0.1;100
12722;BME280;6425;50.316;8.114;2023-03-15T05:27:00;988;;;-0.1;100
12722;BME280;6425;50.316;8.114;2023-03-15T05:30:00;988;;;-0.1;100
12722;BME280;6425;50.316;8.114;2023-03-15T05:33:00;988;;;-0.2;100
12722;BME280;6425;50.316;8.114;2023-03-15T05:36:00;988;;;-0.2;100
12722;BME280;6425;50.316;8.114;2023-03-15T05:39:00;988;;;-0.1;100
12722;BME280;6425;50.316;8.114;2023-03-15T05:42:00;988;;;0.1;100
12722;BME280;6425;50.316;8.114;2023-03-15T05:45:00;988;;;0.2;100
12722;BME280;6425;50.316;8.114;2023-03-15T05:48:00;988;;;0.2;100
12722;BME280;6425;50.316;8.114;2023-03-15T05:51:00;988;;;0.2;100
12722;BME280;6425;50.316;8.114;2023-03-15T05:54:00;988;;;0.2;100
12722;BME280;6425;50.316;8.114;2023-03-15T05:57:00;988;;;0.5;100
12722;BME280;6425;50.316;8.114;2023-03-15T06:00:00;989;;;0.6;100
12722;BME280;6425;50.316;8.114;2023-03-15T06:03:00;989;;;0.5;100
12722;BME280;6425;50.316;8.114;2023-03-15T06:06:00;989;;;0.6;100
12722;BME280;6425;50.316;8.114;2023-03-15T06:09:00;989;;;0.5;100
12722;BME280;6425;50.316;8.114;2023-03-15T06:12:00;989;;;0.8;100
12722;BME280;6425;50.316;8.114;2023-03-15T06:15:00;989;;;0.9;100
12722;BME280;6425;50.316;8.114;2023-03-15T06:18:00;989;;;0.8;100
12722;BME280;6425;50.316;8.114;2023-03-15T06:21:00;989;;;0.7;100
12722;BME280;6425;50.316;8.114;2023-03-15T06:24:00;989;;;0.7;100
12722;BME280;6425;50.316;8.114;2023-03-15T06:27:00;989;;;0.7;100
12722;BME280;6425;50.316;8.114;2023-03-15T06:30:00;989;;;0.9;100
12722;BME280;6425;50.316;8.114;2023-03-15T06:33:00;989;;;0.7;100
12722;BME280;6425;50.316;8.114;2023-03-15T06:36:00;989;;;0.9;100
12722;BME280;6425;50.316;8.114;2023-03-15T06:39:00;989;;;0.5;100
12722;BME280;6425;50.316;8.114;2023-03-15T06:42:00;989;;;0.5;100
12722;BME280;6425;50.316;8.114;2023-03-15T06:45:00;989;;;0.3;100
12722;BME280;6425;50.316;8.114;2023-03-15T06:48:00;989;;;0.3;100
12722;BME280;6425;50.316;8.114;2023-03-15T06:51:00;989;;;0.4;100
12722;BME280;6425;50.316;8.114;2023-03-15T06:54:00;989;;;0.5;100
12722;BME280;6425;50.316;8.114;2023-03-15T06:57:00;989;;;0.3;100
12722;BME280;6425;50.316;8.114;2023-03-15T07:00:00;989;;;0.2;100
12722;BME280;6425;50.316;8.114;2023-03-15T07:03:00;989;;;0.3;100
12722;BME280;6425;50.316;8.114;2023-03-15T07:06:00;989;;;0.4;100
12722;BME280;6425;50.316;8.114;2023-03-15T07:09:00;989;;;0.5;100
12722;BME280;6425;50.316;8.114;2023-03-15T07:12:00;989;;;0.5;100
12722;BME280;6425;50.316;8.114;2023-03-15T07:15:00;989;;;0.4;100
12722;BME280;6425;50.316;8.114;2023-03-15T07:18:00;989;;;0.4;100
12722;BME280;6425;50.316;8.114;2023-03-15T07:21:00;989;;;0.5;100
12722;BME280;6425;50.316;8.114;2023-03-15T07:24:00;989;;;0.5;100
12722;BME280;6425;50.316;8.114;2023-03-15T07:27:00;989;;;0.5;100
12722;BME280;6425;50.316;8.114;2023-03-15T07:30:00;989;;;0.6;100
12722;BME280;6425;50.316;8.114;2023-03-15T07:33:00;989;;;0.6;100
12722;BME280;6425;50.316;8.114;2023-03-15T07:36:00;990;;;0.6;100
12722;BME280;6425;50.316;8.114;2023-03-15T07:39:00;990;;;0.7;100
12722;BME280;6425;50.316;8.114;2023-03-15T07:42:00;990;;;0.8;100
12722;BME280;6425;50.316;8.114;2023-03-15T07:45:00;990;;;0.8;100
12722;BME280;6425;50.316;8.114;2023-03-15T07:48:00;990;;;0.8;100
12722;BME280;6425;50.316;8.114;2023-03-15T07:51:00;990;;;0.9;100
12722;BME280;6425;50.316;8.114;2023-03-15T07:54:00;990;;;0.8;100
12722;BME280;6425;50.316;8.114;2023-03-15T07:57:00;990;;;0.9;100
12722;BME280;6425;50.316;8.114;2023-03-15T08:00:00;990;;;0.9;100
12722;BME280;6425;50.316;8.114;2023-03-15T08:03:00;990;;;0.8;100
12722;BME280;6425;50.316;8.114;2023-03-15T08:06:00;990;;;0.8;100
12722;BME280;6425;50.316;8.114;2023-03-15T08:09:00;990;;;0.8;100
12722;BME280;6425;50.316;8.114;2023-03-15T08:12:00;990;;;0.7;100
12722;BME280;6425;50.316;8.114;2023-03-15T08:15:00;990;;;0.8;100
12722;BME280;6425;50.316;8.114;2023-03-15T08:18:00;990;;;0.8;100
12722;BME280;6425;50.316;8.114;2023-03-15T08:21:00;990;;;0.9;100
12722;BME280;6425;50.316;8.114;2023-03-15T08:24:00;990;;;0.8;100
12722;BME280;6425;50.316;8.114;2023-03-15T08:27:00;990;;;0.9;100
12722;BME280;6425;50.316;8.114;2023-03-15T08:30:00;990;;;1;100
12722;BME280;6425;50.316;8.114;2023-03-15T08:33:00;990;;;0.9;100
12722;BME280;6425;50.316;8.114;2023-03-15T08:36:00;991;;;0.9;100
12722;BME280;6425;50.316;8.114;2023-03-15T08:39:00;991;;;0.8;100
12722;BME280;6425;50.316;8.114;2023-03-15T08:42:00;991;;;0.8;100
12722;BME280;6425;50.316;8.114;2023-03-15T08:45:00;991;;;0.8;100
12722;BME280;6425;50.316;8.114;2023-03-15T08:48:00;991;;;0.8;100
12722;BME280;6425;50.316;8.114;2023-03-15T08:51:00;991;;;0.8;100
12722;BME280;6425;50.316;8.114;2023-03-15T08:54:00;991;;;0.8;100
12722;BME280;6425;50.316;8.114;2023-03-15T08:57:00;991;;;1;100
12722;BME280;6425;50.316;8.114;2023-03-15T09:00:00;991;;;0.9;100
12722;BME280;6425;50.316;8.114;2023-03-15T09:03:00;991;;;1;100
12722;BME280;6425;50.316;8.114;2023-03-15T09:06:00;991;;;1;100
12722;BME280;6425;50.316;8.114;2023-03-15T09:09:00;991;;;1.1;100
12722;BME280;6425;50.316;8.114;2023-03-15T09:12:00;991;;;1.2;100
12722;BME280;6425;50.316;8.114;2023-03-15T09:15:00;991;;;1.2;100
12722;BME280;6425;50.316;8.114;2023-03-15T09:18:00;991;;;1.1;100
12722;BME280;6425;50.316;8.114;2023-03-15T09:21:00;991;;;1.2;100
12722;BME280;6425;50.316;8.114;2023-03-15T09:24:00;991;;;1.2;100
12722;BME280;6425;50.316;8.114;2023-03-15T09:27:00;991;;;1.3;100
12722;BME280;6425;50.316;8.114;2023-03-15T09:30:00;991;;;1.3;100
12722;BME280;6425;50.316;8.114;2023-03-15T09:33:00;991;;;1.2;100
12722;BME280;6425;50.316;8.114;2023-03-15T09:36:00;991;;;1.4;100
12722;BME280;6425;50.316;8.114;2023-03-15T09:39:00;991;;;1.5;100
12722;BME280;6425;50.316;8.114;2023-03-15T09:42:00;991;;;1.4;100
12722;BME280;6425;50.316;8.114;2023-03-15T09:45:01;991;;;1.6;99.9
12722;BME280;6425;50.316;8.114;2023-03-15T09:48:02;991;;;1.9;99.5
12722;BME280;6425;50.316;8.114;2023-03-15T09:51:01;991;;;2.2;98.6
12722;BME280;6425;50.316;8.114;2023-03-15T09:54:00;991;;;2.4;97.4
12722;BME280;6425;50.316;8.114;2023-03-15T09:57:00;991;;;2.3;95.9
12722;BME280;6425;50.316;8.114;2023-03-15T10:00:00;991;;;2.4;93.6
12722;BME280;6425;50.316;8.114;2023-03-15T10:03:00;991;;;2.4;92.2
12722;BME280;6425;50.316;8.114;2023-03-15T10:06:01;992;;;2.2;92.3
12722;BME280;6425;50.316;8.114;2023-03-15T10:09:00;992;;;2.5;92.5
12722;BME280;6425;50.316;8.114;2023-03-15T10:12:01;992;;;2.6;91.1
12722;BME280;6425;50.316;8.114;2023-03-15T10:15:04;992;;;3;86.6
12722;BME280;6425;50.316;8.114;2023-03-15T10:18:06;992;;;3.1;86.3
12722;BME280;6425;50.316;8.114;2023-03-15T10:21:02;992;;;2.7;85.1
12722;BME280;6425;50.316;8.114;2023-03-15T10:24:00;992;;;3.3;83.3
12722;BME280;6425;50.316;8.114;2023-03-15T10:27:03;992;;;2.8;83.9
12722;BME280;6425;50.316;8.114;2023-03-15T10:30:00;992;;;3.1;83.2
12722;BME280;6425;50.316;8.114;2023-03-15T10:33:01;992;;;3.4;80.3
12722;BME280;6425;50.316;8.114;2023-03-15T10:36:00;991;;;3.6;81.9
12722;BME280;6425;50.316;8.114;2023-03-15T10:39:00;991;;;4.3;78.3
12722;BME280;6425;50.316;8.114;2023-03-15T10:42:00;991;;;3.5;75.8
12722;BME280;6425;50.316;8.114;2023-03-15T10:45:10;992;;;3.3;79.6
12722;BME280;6425;50.316;8.114;2023-03-15T10:48:00;992;;;3.3;78.9
12722;BME280;6425;50.316;8.114;2023-03-15T10:51:01;992;;;3.4;79.8
12722;BME280;6425;50.316;8.114;2023-03-15T10:54:01;992;;;3.8;77.1
12722;BME280;6425;50.316;8.114;2023-03-15T10:57:00;992;;;3.7;75.3
12722;BME280;6425;50.316;8.114;2023-03-15T11:00:00;992;;;3.4;75.6
12722;BME280;6425;50.316;8.114;2023-03-15T11:03:00;992;;;3.1;76.5
12722;BME280;6425;50.316;8.114;2023-03-15T11:06:00;992;;;3.1;75.9
12722;BME280;6425;50.316;8.114;2023-03-15T11:09:06;992;;;2.9;75.4
12722;BME280;6425;50.316;8.114;2023-03-15T11:12:00;992;;;2.9;74.8
12722;BME280;6425;50.316;8.114;2023-03-15T11:15:01;992;;;3;73
12722;BME280;6425;50.316;8.114;2023-03-15T11:18:00;992;;;3.8;72.2
12722;BME280;6425;50.316;8.114;2023-03-15T11:21:00;992;;;3.9;70.7
12722;BME280;6425;50.316;8.114;2023-03-15T11:24:00;992;;;3.5;70.7
12722;BME280;6425;50.316;8.114;2023-03-15T11:27:01;992;;;3.7;70.4
12722;BME280;6425;50.316;8.114;2023-03-15T11:30:00;992;;;3.8;70.5
12722;BME280;6425;50.316;8.114;2023-03-15T11:33:00;992;;;3.9;69.3
12722;BME280;6425;50.316;8.114;2023-03-15T11:36:01;992;;;3.7;70.4
12722;BME280;6425;50.316;8.114;2023-03-15T11:39:00;992;;;3.5;72.4
12722;BME280;6425;50.316;8.114;2023-03-15T11:42:01;992;;;3.7;71.9
12722;BME280;6425;50.316;8.114;2023-03-15T11:45:00;992;;;3.5;71.8
12722;BME280;6425;50.316;8.114;2023-03-15T11:48:00;992;;;3.6;70.6
12722;BME280;6425;50.316;8.114;2023-03-15T11:51:00;992;;;3.7;72.4
12722;BME280;6425;50.316;8.114;2023-03-15T11:54:04;992;;;4.3;71.5
12722;BME280;6425;50.316;8.114;2023-03-15T11:57:00;992;;;4;69.4
12722;BME280;6425;50.316;8.114;2023-03-15T12:00:13;992;;;4.4;68.3
12722;BME280;6425;50.316;8.114;2023-03-15T12:06:02;992;;;4.3;64.9
12722;BME280;6425;50.316;8.114;2023-03-15T12:09:00;992;;;4.3;65.8
12722;BME280;6425;50.316;8.114;2023-03-15T12:12:00;992;;;4.4;66.2
12722;BME280;6425;50.316;8.114;2023-03-15T12:15:00;992;;;4.2;66.4
12722;BME280;6425;50.316;8.114;2023-03-15T12:18:01;992;;;4.2;66.7
12722;BME280;6425;50.316;8.114;2023-03-15T12:21:04;992;;;4;67.4
12722;BME280;6425;50.316;8.114;2023-03-15T12:24:00;992;;;3.8;69
12722;BME280;6425;50.316;8.114;2023-03-15T12:27:00;992;;;3.4;69.3
12722;BME280;6425;50.316;8.114;2023-03-15T12:30:00;992;;;3.8;70.6
12722;BME280;6425;50.316;8.114;2023-03-15T12:33:00;992;;;3.6;69.3
12722;BME280;6425;50.316;8.114;2023-03-15T12:36:00;992;;;3.5;70
12722;BME280;6425;50.316;8.114;2023-03-15T12:39:01;992;;;3.5;70.3
12722;BME280;6425;50.316;8.114;2023-03-15T12:42:00;992;;;4;69.7
12722;BME280;6425;50.316;8.114;2023-03-15T12:45:30;992;;;4;68.9
12722;BME280;6425;50.316;8.114;2023-03-15T12:48:31;992;;;4.3;68.6
12722;BME280;6425;50.316;8.114;2023-03-15T12:51:01;992;;;4.3;67.7
12722;BME280;6425;50.316;8.114;2023-03-15T12:54:00;992;;;4;64
12722;BME280;6425;50.316;8.114;2023-03-15T12:57:00;992;;;4.4;62.6
12722;BME280;6425;50.316;8.114;2023-03-15T13:00:00;992;;;4.1;64.3
12722;BME280;6425;50.316;8.114;2023-03-15T13:03:01;992;;;4.3;63.5
12722;BME280;6425;50.316;8.114;2023-03-15T13:06:02;992;;;4.4;63.3
12722;BME280;6425;50.316;8.114;2023-03-15T13:09:01;992;;;4;63.6
12722;BME280;6425;50.316;8.114;2023-03-15T13:12:00;992;;;4.4;61.6
12722;BME280;6425;50.316;8.114;2023-03-15T13:15:00;992;;;4.2;64.1
12722;BME280;6425;50.316;8.114;2023-03-15T13:18:02;992;;;4.2;63
12722;BME280;6425;50.316;8.114;2023-03-15T13:21:04;992;;;4.3;62
12722;BME280;6425;50.316;8.114;2023-03-15T13:24:00;992;;;4;61.9
12722;BME280;6425;50.316;8.114;2023-03-15T13:27:00;992;;;4.1;61.3
12722;BME280;6425;50.316;8.114;2023-03-15T13:30:00;992;;;4.7;62.1
12722;BME280;6425;50.316;8.114;2023-03-15T13:33:01;992;;;5;60.9
12722;BME280;6425;50.316;8.114;2023-03-15T13:36:00;992;;;5.2;61
12722;BME280;6425;50.316;8.114;2023-03-15T13:39:00;992;;;6.1;58.8
12722;BME280;6425;50.316;8.114;2023-03-15T13:42:01;992;;;5.6;56.7
12722;BME280;6425;50.316;8.114;2023-03-15T13:45:02;992;;;4.9;58.1
12722;BME280;6425;50.316;8.114;2023-03-15T13:48:01;992;;;4.9;59.3
12722;BME280;6425;50.316;8.114;2023-03-15T13:51:02;992;;;4.9;59.4
12722;BME280;6425;50.316;8.114;2023-03-15T13:54:00;992;;;5;57.5
12722;BME280;6425;50.316;8.114;2023-03-15T13:57:00;992;;;4.9;58.8
12722;BME280;6425;50.316;8.114;2023-03-15T14:00:02;992;;;5.1;59.6
12722;BME280;6425;50.316;8.114;2023-03-15T14:06:00;992;;;4.8;59.4
12722;BME280;6425;50.316;8.114;2023-03-15T14:09:03;992;;;5.4;59.1
12722;BME280;6425;50.316;8.114;2023-03-15T14:12:00;992;;;6.6;55.3
12722;BME280;6425;50.316;8.114;2023-03-15T14:15:00;992;;;6.6;49.9
12722;BME280;6425;50.316;8.114;2023-03-15T14:18:00;992;;;6.4;50.4
12722;BME280;6425;50.316;8.114;2023-03-15T14:21:00;992;;;6.4;50.6
12722;BME280;6425;50.316;8.114;2023-03-15T14:24:03;992;;;6.3;50.3
12722;BME280;6425;50.316;8.114;2023-03-15T14:27:00;992;;;6;49.6
12722;BME280;6425;50.316;8.114;2023-03-15T14:30:00;992;;;5.7;49.8
12722;BME280;6425;50.316;8.114;2023-03-15T14:33:00;992;;;5.9;52.1
12722;BME280;6425;50.316;8.114;2023-03-15T14:36:00;992;;;5.7;51.4
12722;BME280;6425;50.316;8.114;2023-03-15T14:39:00;992;;;5.9;51.2
12722;BME280;6425;50.316;8.114;2023-03-15T14:42:00;992;;;5.9;49.6
12722;BME280;6425;50.316;8.114;2023-03-15T14:45:00;992;;;5.4;48.9
12722;BME280;6425;50.316;8.114;2023-03-15T14:48:00;992;;;5;50.4
12722;BME280;6425;50.316;8.114;2023-03-15T14:51:00;992;;;5.6;51
12722;BME280;6425;50.316;8.114;2023-03-15T14:54:00;993;;;5.6;50.9
12722;BME280;6425;50.316;8.114;2023-03-15T14:57:00;992;;;5.8;50.1
12722;BME280;6425;50.316;8.114;2023-03-15T15:00:00;992;;;5.8;50.5
12722;BME280;6425;50.316;8.114;2023-03-15T15:03:00;992;;;6.2;50.7
12722;BME280;6425;50.316;8.114;2023-03-15T15:06:00;993;;;6.4;48.7
12722;BME280;6425;50.316;8.114;2023-03-15T15:09:00;993;;;6.5;49.3
12722;BME280;6425;50.316;8.114;2023-03-15T15:12:00;992;;;6.7;47.5
12722;BME280;6425;50.316;8.114;2023-03-15T15:15:00;993;;;6.5;48.4
12722;BME280;6425;50.316;8.114;2023-03-15T15:18:00;993;;;6.2;49.3
12722;BME280;6425;50.316;8.114;2023-03-15T15:21:00;993;;;5.8;50.1
12722;BME280;6425;50.316;8.114;2023-03-15T15:24:00;993;;;5.9;49.8
12722;BME280;6425;50.316;8.114;2023-03-15T15:27:00;993;;;5.7;50.1
12722;BME280;6425;50.316;8.114;2023-03-15T15:30:00;993;;;5.9;50.2
12722;BME280;6425;50.316;8.114;2023-03-15T15:33:00;993;;;5.5;49.9
12722;BME280;6425;50.316;8.114;2023-03-15T15:36:00;993;;;5.5;50.4
12722;BME280;6425;50.316;8.114;2023-03-15T15:39:00;993;;;5.4;49.7
12722;BME280;6425;50.316;8.114;2023-03-15T15:42:00;993;;;5.5;50
12722;BME280;6425;50.316;8.114;2023-03-15T15:45:00;993;;;5.6;50.7
12722;BME280;6425;50.316;8.114;2023-03-15T15:48:00;993;;;6.2;48.5
12722;BME280;6425;50.316;8.114;2023-03-15T15:51:00;993;;;6.2;48
12722;BME280;6425;50.316;8.114;2023-03-15T15:54:00;993;;;5.9;50.7
12722;BME280;6425;50.316;8.114;2023-03-15T15:57:00;993;;;5.6;51.5
12722;BME280;6425;50.316;8.114;2023-03-15T16:00:00;993;;;5.1;51.6
12722;BME280;6425;50.316;8.114;2023-03-15T16:03:00;993;;;5;52.7
12722;BME280;6425;50.316;8.114;2023-03-15T16:06:00;993;;;5.1;52.6
12722;BME280;6425;50.316;8.114;2023-03-15T16:09:00;993;;;5.3;53.3
12722;BME280;6425;50.316;8.114;2023-03-15T16:12:00;993;;;5.3;52.6
12722;BME280;6425;50.316;8.114;2023-03-15T16:15:00;993;;;5.5;51.6
12722;BME280;6425;50.316;8.114;2023-03-15T16:18:00;993;;;6.1;50.8
12722;BME280;6425;50.316;8.114;2023-03-15T16:21:00;993;;;5.9;51.7
12722;BME280;6425;50.316;8.114;2023-03-15T16:24:02;993;;;6;51.8
12722;BME280;6425;50.316;8.114;2023-03-15T16:27:00;993;;;6.4;50.3
12722;BME280;6425;50.316;8.114;2023-03-15T16:30:00;993;;;6.5;49.4
12722;BME280;6425;50.316;8.114;2023-03-15T16:33:00;993;;;6.9;48.1
12722;BME280;6425;50.316;8.114;2023-03-15T16:36:00;993;;;6.1;48.7
12722;BME280;6425;50.316;8.114;2023-03-15T16:39:00;993;;;5.9;49.2
12722;BME280;6425;50.316;8.114;2023-03-15T16:42:00;993;;;5.7;49.4
12722;BME280;6425;50.316;8.114;2023-03-15T16:45:00;993;;;5.8;49.7
12722;BME280;6425;50.316;8.114;2023-03-15T16:48:00;993;;;6.1;49.5
12722;BME280;6425;50.316;8.114;2023-03-15T16:51:00;993;;;5.7;50.4
12722;BME280;6425;50.316;8.114;2023-03-15T16:54:00;993;;;5.5;51.3
12722;BME280;6425;50.316;8.114;2023-03-15T16:57:00;993;;;5.8;52.8
12722;BME280;6425;50.316;8.114;2023-03-15T17:00:00;993;;;6.7;49.8
12722;BME280;6425;50.316;8.114;2023-03-15T17:03:00;993;;;7.1;48.8
12722;BME280;6425;50.316;8.114;2023-03-15T17:06:00;993;;;7.4;50.6
12722;BME280;6425;50.316;8.114;2023-03-15T17:09:00;993;;;7.5;51.2
12722;BME280;6425;50.316;8.114;2023-03-15T17:12:00;993;;;7.6;51.9
12722;BME280;6425;50.316;8.114;2023-03-15T17:15:00;993;;;6.9;53.2
12722;BME280;6425;50.316;8.114;2023-03-15T17:18:00;993;;;6.4;56.2
12722;BME280;6425;50.316;8.114;2023-03-15T17:21:00;993;;;6.1;57.4
12722;BME280;6425;50.316;8.114;2023-03-15T17:24:00;993;;;5.9;58.3
12722;BME280;6425;50.316;8.114;2023-03-15T17:27:00;993;;;5.3;58.8
12722;BME280;6425;50.316;8.114;2023-03-15T17:30:00;993;;;4.6;61.1
12722;BME280;6425;50.316;8.114;2023-03-15T17:33:00;993;;;4.2;64.2
12722;BME280;6425;50.316;8.114;2023-03-15T17:36:00;993;;;3.9;65.5
12722;BME280;6425;50.316;8.114;2023-03-15T17:39:00;993;;;3.9;65.9
12722;BME280;6425;50.316;8.114;2023-03-15T17:42:00;993;;;3.8;66.5
12722;BME280;6425;50.316;8.114;2023-03-15T17:45:00;993;;;3.9;66.5
12722;BME280;6425;50.316;8.114;2023-03-15T17:48:00;993;;;4;66.5
12722;BME280;6425;50.316;8.114;2023-03-15T17:51:00;993;;;4;65
12722;BME280;6425;50.316;8.114;2023-03-15T17:54:00;993;;;3.6;65.9
12722;BME280;6425;50.316;8.114;2023-03-15T17:57:00;993;;;3.2;66.8
12722;BME280;6425;50.316;8.114;2023-03-15T18:00:00;993;;;3.1;66.8
12722;BME280;6425;50.316;8.114;2023-03-15T18:03:00;993;;;2.7;67.9
12722;BME280;6425;50.316;8.114;2023-03-15T18:06:00;993;;;3;68.2
12722;BME280;6425;50.316;8.114;2023-03-15T18:09:00;993;;;3.3;67.6
12722;BME280;6425;50.316;8.114;2023-03-15T18:12:00;994;;;3.7;66
12722;BME280;6425;50.316;8.114;2023-03-15T18:15:00;994;;;3.7;64.6